createdAt,value
2018-03-19T00:00:59.516Z,-2.00
2018-03-19T00:03:25.739Z,-2.10
2018-03-19T00:05:52.050Z,-2.10
2018-03-19T00:08:18.263Z,-2.10
2018-03-19T00:10:44.486Z,-2.10
2018-03-19T00:13:11.474Z,-2.10
2018-03-19T00:15:37.693Z,-2.20
2018-03-19T00:18:04.651Z,-2.10
2018-03-19T00:20:31.623Z,-2.10
2018-03-19T00:22:57.843Z,-2.10
2018-03-19T00:25:24.813Z,-2.20
2018-03-19T00:27:51.021Z,-2.20
2018-03-19T00:30:17.239Z,-2.10
2018-03-19T00:32:43.465Z,-2.10
2018-03-19T00:35:09.674Z,-2.10
2018-03-19T00:37:35.896Z,-2.00
2018-03-19T00:40:02.895Z,-2.10
2018-03-19T00:42:29.107Z,-2.10
2018-03-19T00:44:56.065Z,-2.20
2018-03-19T00:47:23.010Z,-2.20
2018-03-19T00:49:49.961Z,-2.20
2018-03-19T00:52:16.923Z,-2.30
2018-03-19T00:54:43.887Z,-2.30
2018-03-19T00:57:10.876Z,-2.30
2018-03-19T00:59:37.094Z,-2.30
2018-03-19T01:02:04.052Z,-2.20
2018-03-19T01:04:30.265Z,-2.30
2018-03-19T01:06:56.594Z,-2.20
2018-03-19T01:09:22.800Z,-2.20
2018-03-19T01:11:49.038Z,-2.20
2018-03-19T01:14:15.266Z,-2.20
2018-03-19T01:16:41.494Z,-2.20
2018-03-19T01:19:08.436Z,-2.30
2018-03-19T01:21:35.402Z,-2.30
2018-03-19T01:24:02.370Z,-2.30
2018-03-19T01:26:28.612Z,-2.40
2018-03-19T01:28:54.824Z,-2.40
2018-03-19T01:31:21.034Z,-2.50
2018-03-19T01:33:47.262Z,-2.50
2018-03-19T01:36:13.486Z,-2.50
2018-03-19T01:38:39.720Z,-2.50
2018-03-19T01:41:05.936Z,-2.50
2018-03-19T01:43:32.892Z,-2.50
2018-03-19T01:45:59.849Z,-2.40
2018-03-19T01:48:26.785Z,-2.40
2018-03-19T01:50:53.027Z,-2.40
2018-03-19T01:53:19.231Z,-2.40
2018-03-19T01:55:45.458Z,-2.40
2018-03-19T01:58:11.667Z,-2.40
2018-03-19T02:00:38.643Z,-2.40
2018-03-19T02:03:04.857Z,-2.50
2018-03-19T02:05:31.161Z,-2.40
2018-03-19T02:07:57.379Z,-2.40
2018-03-19T02:10:23.594Z,-2.40
2018-03-19T02:12:50.569Z,-2.40
2018-03-19T02:15:16.777Z,-2.40
2018-03-19T02:17:42.991Z,-2.40
2018-03-19T02:20:09.227Z,-2.50
2018-03-19T02:22:35.446Z,-2.50
2018-03-19T02:25:01.685Z,-2.50
2018-03-19T02:27:27.887Z,-2.60
2018-03-19T02:29:55.135Z,-2.60
2018-03-19T02:32:21.359Z,-2.60
2018-03-19T02:34:47.578Z,-2.60
2018-03-19T02:37:13.820Z,-2.60
2018-03-19T02:39:40.024Z,-2.60
2018-03-19T02:42:06.241Z,-2.60
2018-03-19T02:44:33.202Z,-2.60
2018-03-19T02:47:00.183Z,-2.60
2018-03-19T02:49:27.142Z,-2.60
2018-03-19T02:51:53.382Z,-2.70
2018-03-19T02:54:20.357Z,-2.60
2018-03-19T02:56:46.562Z,-2.70
2018-03-19T02:59:13.537Z,-2.60
2018-03-19T03:01:39.764Z,-2.60
2018-03-19T03:04:06.763Z,-2.60
2018-03-19T03:06:33.019Z,-2.60
2018-03-19T03:08:59.249Z,-2.60
2018-03-19T03:11:25.495Z,-2.60
2018-03-19T03:13:51.751Z,-2.60
2018-03-19T03:16:17.982Z,-2.60
2018-03-19T03:18:44.192Z,-2.60
2018-03-19T03:21:10.406Z,-2.60
2018-03-19T03:23:37.348Z,-2.60
2018-03-19T03:26:03.590Z,-2.60
2018-03-19T03:28:29.820Z,-2.60
2018-03-19T03:30:56.039Z,-2.60
2018-03-19T03:33:22.252Z,-2.70
2018-03-19T03:35:48.440Z,-2.70
2018-03-19T03:38:14.650Z,-2.70
2018-03-19T03:40:40.864Z,-2.80
2018-03-19T03:43:07.102Z,-2.80
2018-03-19T03:45:33.302Z,-2.80
2018-03-19T03:47:59.510Z,-2.70
2018-03-19T03:50:25.762Z,-2.70
2018-03-19T03:52:51.974Z,-2.70
2018-03-19T03:55:18.193Z,-2.70
2018-03-19T03:57:44.391Z,-2.70
2018-03-19T04:00:10.632Z,-2.70
2018-03-19T04:02:36.845Z,-2.70
2018-03-19T04:05:03.364Z,-2.70
2018-03-19T04:07:29.594Z,-2.80
2018-03-19T04:09:56.540Z,-2.90
2018-03-19T04:12:23.507Z,-2.90
2018-03-19T04:14:50.477Z,-2.90
2018-03-19T04:17:16.775Z,-2.90
2018-03-19T04:19:43.004Z,-2.80
2018-03-19T04:22:09.228Z,-2.80
2018-03-19T04:24:35.438Z,-2.80
2018-03-19T04:27:01.659Z,-2.80
2018-03-19T04:29:28.635Z,-2.80
2018-03-19T04:31:54.860Z,-2.80
2018-03-19T04:34:21.880Z,-2.90
2018-03-19T04:36:48.108Z,-2.90
2018-03-19T04:39:14.335Z,-2.90
2018-03-19T04:41:40.541Z,-2.90
2018-03-19T04:44:07.501Z,-3.00
2018-03-19T04:46:34.470Z,-3.00
2018-03-19T04:49:00.682Z,-3.10
2018-03-19T04:51:26.905Z,-3.00
2018-03-19T04:53:53.135Z,-2.90
2018-03-19T04:56:19.426Z,-2.90
2018-03-19T04:58:45.619Z,-2.90
2018-03-19T05:01:12.175Z,-2.80
2018-03-19T05:03:38.383Z,-2.90
2018-03-19T05:06:04.639Z,-2.90
2018-03-19T05:08:30.849Z,-2.90
2018-03-19T05:10:57.051Z,-2.90
2018-03-19T05:13:24.027Z,-2.90
2018-03-19T05:15:50.989Z,-2.90
2018-03-19T05:18:17.214Z,-2.90
2018-03-19T05:20:44.159Z,-3.00
2018-03-19T05:23:10.379Z,-3.00
2018-03-19T05:25:36.605Z,-2.90
2018-03-19T05:28:02.858Z,-3.00
2018-03-19T05:30:29.091Z,-2.90
2018-03-19T05:32:55.295Z,-2.90
2018-03-19T05:35:21.517Z,-2.90
2018-03-19T05:37:48.479Z,-2.90
2018-03-19T05:40:15.455Z,-2.90
2018-03-19T05:42:41.671Z,-2.90
2018-03-19T05:45:08.646Z,-2.90
2018-03-19T05:47:34.879Z,-2.90
2018-03-19T05:50:01.110Z,-2.80
2018-03-19T05:52:28.471Z,-2.80
2018-03-19T05:54:55.424Z,-2.80
2018-03-19T05:57:22.410Z,-2.80
2018-03-19T05:59:48.638Z,-2.80
2018-03-19T06:02:15.586Z,-2.50
2018-03-19T06:04:42.546Z,-1.70
2018-03-19T06:07:09.552Z,-1.10
2018-03-19T06:09:35.792Z,-1.20
2018-03-19T06:12:02.017Z,-0.50
2018-03-19T06:14:35.288Z,0.10
2018-03-19T06:17:02.270Z,1.60
2018-03-19T06:19:28.522Z,1.50
2018-03-19T06:21:54.748Z,2.30
2018-03-19T06:24:20.969Z,2.70
2018-03-19T06:26:47.934Z,3.20
2018-03-19T06:29:14.157Z,3.20
2018-03-19T06:31:41.114Z,3.70
2018-03-19T06:34:08.078Z,3.20
2018-03-19T06:36:35.016Z,2.20
2018-03-19T06:39:01.300Z,2.20
2018-03-19T06:41:27.523Z,1.20
2018-03-19T06:43:54.504Z,-0.30
2018-03-19T06:46:20.713Z,-0.30
2018-03-19T06:48:47.658Z,-1.20
2018-03-19T06:51:13.907Z,-1.20
2018-03-19T06:53:40.857Z,-1.80
2018-03-19T06:56:07.873Z,-1.90
2018-03-19T06:58:34.104Z,-1.90
2018-03-19T07:01:00.348Z,-2.10
2018-03-19T07:03:26.586Z,-2.20
2018-03-19T07:05:52.792Z,-2.20
2018-03-19T07:08:20.037Z,-2.30
2018-03-19T07:10:46.260Z,-2.30
2018-03-19T07:13:12.493Z,-2.30
2018-03-19T07:15:38.722Z,-2.30
2018-03-19T07:18:04.948Z,-2.30
2018-03-19T07:20:31.169Z,-2.30
2018-03-19T07:22:57.407Z,-2.30
2018-03-19T07:25:23.633Z,-2.10
2018-03-19T07:27:50.594Z,-1.80
2018-03-19T07:30:17.602Z,-1.60
2018-03-19T07:32:43.801Z,-1.70
2018-03-19T07:35:10.756Z,-1.80
2018-03-19T07:37:37.017Z,-1.80
2018-03-19T07:40:03.247Z,-1.80
2018-03-19T07:42:29.479Z,-1.70
2018-03-19T07:44:55.713Z,-1.40
2018-03-19T07:47:22.687Z,-1.20
2018-03-19T07:49:48.921Z,-1.30
2018-03-19T07:52:15.905Z,-1.00
2018-03-19T07:54:42.121Z,-1.00
2018-03-19T07:57:08.343Z,-0.90
2018-03-19T07:59:35.299Z,-0.90
2018-03-19T08:02:02.316Z,-1.00
2018-03-19T08:04:28.515Z,-1.00
2018-03-19T08:06:54.739Z,-1.20
2018-03-19T08:09:21.695Z,-1.60
2018-03-19T08:11:48.659Z,-1.60
2018-03-19T08:14:15.622Z,-1.70
2018-03-19T08:16:42.579Z,-1.80
2018-03-19T08:19:09.528Z,-1.80
2018-03-19T08:21:36.524Z,-1.90
2018-03-19T08:24:02.762Z,-1.90
2018-03-19T08:26:28.993Z,-1.80
2018-03-19T08:28:55.236Z,-1.80
2018-03-19T08:31:21.459Z,-1.80
2018-03-19T08:33:48.405Z,-1.80
2018-03-19T08:36:15.348Z,-1.70
2018-03-19T08:38:41.586Z,-1.80
2018-03-19T08:41:07.808Z,-1.80
2018-03-19T08:43:34.030Z,-1.80
2018-03-19T08:46:00.232Z,-1.80
2018-03-19T08:48:26.490Z,-1.70
2018-03-19T08:50:52.754Z,-1.70
2018-03-19T08:53:18.990Z,-1.60
2018-03-19T08:55:45.220Z,-1.60
2018-03-19T08:58:11.431Z,-1.60
2018-03-19T09:00:38.681Z,-1.60
2018-03-19T09:03:05.660Z,-1.50
2018-03-19T09:05:31.912Z,-1.50
2018-03-19T09:07:58.886Z,-1.40
2018-03-19T09:10:25.100Z,-1.40
2018-03-19T09:12:51.723Z,-1.40
2018-03-19T09:15:17.931Z,-1.40
2018-03-19T09:17:44.150Z,-1.40
2018-03-19T09:20:10.431Z,-1.30
2018-03-19T09:22:36.664Z,-1.10
2018-03-19T09:25:02.926Z,-1.00
2018-03-19T09:27:29.174Z,-0.90
2018-03-19T09:29:56.189Z,-0.80
2018-03-19T09:32:22.461Z,-0.80
2018-03-19T09:34:48.656Z,-0.70
2018-03-19T09:37:14.895Z,-0.60
2018-03-19T09:39:41.157Z,-0.50
2018-03-19T09:42:07.391Z,-0.40
2018-03-19T09:44:33.638Z,-0.30
2018-03-19T09:47:00.228Z,-0.20
2018-03-19T09:49:27.194Z,0.00
2018-03-19T09:51:53.421Z,0.00
2018-03-19T09:54:20.395Z,0.20
2018-03-19T09:56:46.623Z,0.20
2018-03-19T09:59:13.597Z,0.30
2018-03-19T10:01:39.850Z,0.30
2018-03-19T10:04:06.055Z,0.50
2018-03-19T10:06:32.397Z,0.80
2018-03-19T10:08:59.370Z,1.20
2018-03-19T10:11:26.339Z,1.30
2018-03-19T10:13:52.556Z,1.30
2018-03-19T10:16:19.522Z,1.50
2018-03-19T10:18:46.508Z,1.60
2018-03-19T10:21:12.731Z,1.50
2018-03-19T10:23:38.963Z,1.60
2018-03-19T10:26:05.943Z,1.80
2018-03-19T10:28:32.174Z,1.80
2018-03-19T10:30:58.401Z,1.90
2018-03-19T10:33:25.450Z,1.50
2018-03-19T10:35:51.611Z,1.50
2018-03-19T10:38:18.112Z,1.30
2018-03-19T10:40:44.310Z,1.10
2018-03-19T10:43:10.527Z,1.00
2018-03-19T10:45:37.506Z,0.70
2018-03-19T10:48:03.729Z,0.70
2018-03-19T10:50:29.961Z,0.70
2018-03-19T10:52:57.000Z,0.50
2018-03-19T10:55:23.200Z,0.50
2018-03-19T10:57:49.426Z,0.50
2018-03-19T11:00:15.644Z,0.50
2018-03-19T11:02:48.737Z,0.40
2018-03-19T11:05:21.745Z,0.40
2018-03-19T11:07:54.817Z,0.40
2018-03-19T11:10:21.057Z,0.40
2018-03-19T11:12:47.282Z,0.40
2018-03-19T11:15:14.255Z,0.40
2018-03-19T11:17:40.472Z,0.40
2018-03-19T11:20:06.728Z,0.40
2018-03-19T11:22:32.948Z,0.50
2018-03-19T11:24:59.212Z,0.50
2018-03-19T11:27:25.452Z,0.40
2018-03-19T11:29:51.681Z,0.50
2018-03-19T11:32:17.920Z,0.50
2018-03-19T11:34:44.128Z,0.50
2018-03-19T11:37:10.338Z,0.50
2018-03-19T11:39:44.183Z,0.40
2018-03-19T11:42:10.684Z,0.30
2018-03-19T11:44:36.912Z,0.40
2018-03-19T11:47:03.131Z,0.40
2018-03-19T11:49:29.370Z,0.50
2018-03-19T11:51:55.580Z,0.50
2018-03-19T11:54:21.828Z,0.50
2018-03-19T11:56:48.048Z,0.40
2018-03-19T11:59:15.016Z,0.30
2018-03-19T12:01:41.256Z,0.20
2018-03-19T12:04:08.221Z,0.10
2018-03-19T12:06:34.453Z,0.10
2018-03-19T12:09:01.425Z,0.10
2018-03-19T12:11:28.396Z,0.50
2018-03-19T12:13:54.643Z,0.50
2018-03-19T12:16:20.901Z,1.80
2018-03-19T12:18:47.153Z,2.80
2018-03-19T12:21:13.422Z,3.40
2018-03-19T12:23:40.694Z,4.20
2018-03-19T12:26:07.660Z,4.40
2018-03-19T12:28:33.912Z,4.40
2018-03-19T12:31:00.174Z,4.20
2018-03-19T12:33:26.417Z,3.70
2018-03-19T12:35:52.908Z,3.10
2018-03-19T12:38:19.858Z,2.20
2018-03-19T12:40:46.091Z,2.20
2018-03-19T12:43:12.331Z,1.80
2018-03-19T12:45:38.587Z,1.60
2018-03-19T12:48:05.548Z,1.20
2018-03-19T12:50:32.513Z,1.10
2018-03-19T12:52:58.741Z,1.00
2018-03-19T12:55:25.699Z,0.80
2018-03-19T12:57:51.895Z,0.80
2018-03-19T13:00:18.151Z,0.70
2018-03-19T13:02:44.352Z,0.60
2018-03-19T13:05:10.587Z,0.60
2018-03-19T13:07:36.879Z,0.70
2018-03-19T13:10:03.156Z,0.70
2018-03-19T13:12:30.129Z,0.80
2018-03-19T13:14:56.341Z,0.80
2018-03-19T13:17:23.325Z,0.70
2018-03-19T13:19:49.553Z,0.70
2018-03-19T13:22:15.801Z,0.70
2018-03-19T13:24:42.027Z,0.80
2018-03-19T13:27:09.007Z,1.00
2018-03-19T13:29:35.278Z,0.90
2018-03-19T13:32:02.254Z,1.00
2018-03-19T13:34:28.476Z,1.00
2018-03-19T13:36:54.720Z,1.00
2018-03-19T13:39:20.938Z,1.00
2018-03-19T13:41:47.186Z,1.00
2018-03-19T13:44:13.441Z,0.90
2018-03-19T13:46:39.696Z,0.90
2018-03-19T13:49:05.928Z,0.90
2018-03-19T13:51:32.156Z,1.00
2018-03-19T13:53:59.194Z,1.00
2018-03-19T13:56:25.423Z,1.00
2018-03-19T13:58:51.700Z,0.90
2018-03-19T14:01:17.932Z,0.70
2018-03-19T14:03:44.154Z,0.60
2018-03-19T14:06:10.392Z,0.50
2018-03-19T14:08:44.448Z,0.50
2018-03-19T14:11:10.695Z,0.50
2018-03-19T14:13:36.972Z,0.50
2018-03-19T14:16:03.956Z,0.50
2018-03-19T14:18:30.231Z,0.50
2018-03-19T14:20:56.467Z,0.50
2018-03-19T14:23:22.740Z,0.50
2018-03-19T14:25:49.002Z,0.50
2018-03-19T14:28:16.063Z,0.50
2018-03-19T14:30:43.078Z,0.60
2018-03-19T14:33:10.055Z,0.60
2018-03-19T14:35:36.336Z,0.60
2018-03-19T14:38:02.585Z,0.50
2018-03-19T14:40:28.815Z,0.50
2018-03-19T14:42:55.087Z,0.40
2018-03-19T14:45:21.328Z,0.40
2018-03-19T14:47:48.211Z,0.40
2018-03-19T14:50:16.081Z,0.30
2018-03-19T14:52:43.547Z,0.30
2018-03-19T14:55:10.077Z,0.30
2018-03-19T14:57:36.339Z,0.30
2018-03-19T15:00:02.604Z,0.30
2018-03-19T15:02:28.840Z,0.30
2018-03-19T15:04:55.065Z,0.30
2018-03-19T15:07:21.291Z,0.30
2018-03-19T15:09:47.511Z,0.30
2018-03-19T15:12:13.774Z,0.20
2018-03-19T15:14:40.013Z,0.10
2018-03-19T15:17:06.258Z,0.00
2018-03-19T15:19:32.500Z,-0.10
2018-03-19T15:21:58.738Z,-0.10
2018-03-19T15:24:25.007Z,-0.10
2018-03-19T15:26:51.259Z,-0.20
2018-03-19T15:29:18.248Z,-0.20
2018-03-19T15:31:44.492Z,-0.20
2018-03-19T15:34:10.762Z,-0.20
2018-03-19T15:36:37.014Z,-0.30
2018-03-19T15:39:03.320Z,-0.30
2018-03-19T15:41:29.540Z,-0.40
2018-03-19T15:43:55.800Z,-0.50
2018-03-19T15:46:22.018Z,-0.50
2018-03-19T15:48:48.984Z,-0.50
2018-03-19T15:51:15.215Z,-0.50
2018-03-19T15:53:42.174Z,-0.60
2018-03-19T15:56:08.440Z,-0.60
2018-03-19T15:58:34.645Z,-0.60
2018-03-19T16:01:01.611Z,-0.70
2018-03-19T16:03:28.586Z,-0.70
2018-03-19T16:05:54.807Z,-0.70
2018-03-19T16:08:21.786Z,-0.70
2018-03-19T16:10:48.005Z,-0.70
2018-03-19T16:13:14.976Z,-0.70
2018-03-19T16:15:41.235Z,-0.70
2018-03-19T16:18:07.672Z,-0.70
2018-03-19T16:20:33.960Z,-0.70
2018-03-19T16:23:00.192Z,-0.70
2018-03-19T16:25:26.488Z,-0.80
2018-03-19T16:27:52.728Z,-0.80
2018-03-19T16:30:18.991Z,-0.90
2018-03-19T16:32:45.225Z,-1.00
2018-03-19T16:35:11.456Z,-1.10
2018-03-19T16:37:37.690Z,-1.20
2018-03-19T16:40:03.936Z,-1.10
2018-03-19T16:42:30.202Z,-1.20
2018-03-19T16:44:56.451Z,-1.30
2018-03-19T16:47:22.685Z,-1.30
2018-03-19T16:49:49.672Z,-1.30
2018-03-19T16:52:15.894Z,-1.30
2018-03-19T16:54:42.160Z,-1.30
2018-03-19T16:57:08.415Z,-1.30
2018-03-19T16:59:35.423Z,-1.40
2018-03-19T17:02:01.658Z,-1.40
2018-03-19T17:04:27.915Z,-1.50
2018-03-19T17:06:54.193Z,-1.50
2018-03-19T17:09:21.167Z,-1.70
2018-03-19T17:11:47.461Z,-1.70
2018-03-19T17:14:13.689Z,-1.80
2018-03-19T17:16:39.948Z,-2.00
2018-03-19T17:19:06.201Z,-2.10
2018-03-19T17:21:33.185Z,-2.20
2018-03-19T17:23:59.408Z,-2.20
2018-03-19T17:26:26.385Z,-2.30
2018-03-19T17:28:52.635Z,-2.30
2018-03-19T17:31:18.871Z,-2.30
2018-03-19T17:33:45.165Z,-2.30
2018-03-19T17:36:11.425Z,-2.40
2018-03-19T17:38:38.432Z,-2.40
2018-03-19T17:41:04.681Z,-2.40
2018-03-19T17:43:30.965Z,-2.40
2018-03-19T17:45:57.991Z,-2.40
2018-03-19T17:48:24.984Z,-2.40
2018-03-19T17:50:51.967Z,-2.30
2018-03-19T17:53:18.287Z,-2.30
2018-03-19T17:55:45.275Z,-2.20
2018-03-19T17:58:11.504Z,-2.20
2018-03-19T18:00:37.777Z,-2.10
2018-03-19T18:03:04.061Z,-2.10
2018-03-19T18:05:30.289Z,-2.10
2018-03-19T18:07:56.534Z,-2.10
2018-03-19T18:10:22.804Z,-2.20
2018-03-19T18:12:49.809Z,-2.20
2018-03-19T18:15:16.027Z,-2.20
2018-03-19T18:17:42.280Z,-2.20
2018-03-19T18:20:08.580Z,-2.30
2018-03-19T18:22:35.579Z,-2.30
2018-03-19T18:25:01.851Z,-2.30
2018-03-19T18:27:28.112Z,-2.30
2018-03-19T18:29:55.174Z,-2.30
2018-03-19T18:32:21.457Z,-2.30
2018-03-19T18:34:47.674Z,-2.30
2018-03-19T18:37:13.923Z,-2.30
2018-03-19T18:39:40.161Z,-2.30
2018-03-19T18:42:06.426Z,-2.30
2018-03-19T18:44:32.682Z,-2.30
2018-03-19T18:46:58.990Z,-2.30
2018-03-19T18:49:25.238Z,-2.30
2018-03-19T18:51:51.776Z,-2.30
2018-03-19T18:54:18.054Z,-2.30
2018-03-19T18:56:44.306Z,-2.30
2018-03-19T18:59:10.586Z,-2.30
2018-03-19T19:01:36.904Z,-2.30
2018-03-19T19:04:03.178Z,-2.30
2018-03-19T19:06:29.463Z,-2.20
2018-03-19T19:08:55.771Z,-2.20
2018-03-19T19:11:22.030Z,-2.20
2018-03-19T19:13:48.361Z,-2.20
2018-03-19T19:16:14.634Z,-2.20
2018-03-19T19:18:40.917Z,-2.20
2018-03-19T19:21:07.217Z,-2.20
2018-03-19T19:23:33.522Z,-2.20
2018-03-19T19:25:59.804Z,-2.20
2018-03-19T19:28:26.897Z,-2.20
2018-03-19T19:30:53.917Z,-2.20
2018-03-19T19:33:20.238Z,-2.30
2018-03-19T19:35:46.618Z,-2.20
2018-03-19T19:38:12.969Z,-2.20
2018-03-19T19:40:39.319Z,-2.20
2018-03-19T19:43:06.353Z,-2.20
2018-03-19T19:45:32.675Z,-2.20
2018-03-19T19:47:59.922Z,-2.20
2018-03-19T19:50:26.238Z,-2.30
2018-03-19T19:52:53.303Z,-2.40
2018-03-19T19:55:19.673Z,-2.40
2018-03-19T19:57:46.314Z,-2.40
2018-03-19T20:00:12.645Z,-2.40
2018-03-19T20:02:38.952Z,-2.40
2018-03-19T20:05:05.262Z,-2.40
2018-03-19T20:07:31.593Z,-2.40
2018-03-19T20:09:57.882Z,-2.40
2018-03-19T20:12:24.173Z,-2.40
2018-03-19T20:14:50.467Z,-2.40
2018-03-19T20:17:17.528Z,-2.40
2018-03-19T20:19:43.827Z,-2.40
2018-03-19T20:22:10.136Z,-2.30
2018-03-19T20:24:36.417Z,-2.30
2018-03-19T20:27:02.746Z,-2.30
2018-03-19T20:29:29.091Z,-2.30
2018-03-19T20:31:55.381Z,-2.30
2018-03-19T20:34:21.722Z,-2.30
2018-03-19T20:36:48.013Z,-2.30
2018-03-19T20:39:14.323Z,-2.30
2018-03-19T20:41:41.365Z,-2.30
2018-03-19T20:44:07.645Z,-2.30
2018-03-19T20:46:33.910Z,-2.20
2018-03-19T20:49:00.213Z,-2.20
2018-03-19T20:51:26.495Z,-2.20
2018-03-19T20:53:52.809Z,-2.20
2018-03-19T20:56:19.402Z,-2.20
2018-03-19T20:58:45.652Z,-2.20
2018-03-19T21:01:11.912Z,-2.20
2018-03-19T21:03:38.962Z,-2.20
2018-03-19T21:06:05.228Z,-2.20
2018-03-19T21:08:31.482Z,-2.10
2018-03-19T21:10:57.722Z,-2.20
2018-03-19T21:13:23.985Z,-2.10
2018-03-19T21:15:50.240Z,-2.10
2018-03-19T21:18:16.522Z,-2.10
2018-03-19T21:20:43.540Z,-2.10
2018-03-19T21:23:09.816Z,-2.10
2018-03-19T21:25:36.129Z,-2.10
2018-03-19T21:28:02.414Z,-2.10
2018-03-19T21:30:29.411Z,-2.20
2018-03-19T21:32:55.648Z,-2.20
2018-03-19T21:35:21.893Z,-2.20
2018-03-19T21:37:48.136Z,-2.20
2018-03-19T21:40:15.125Z,-2.20
2018-03-19T21:42:41.375Z,-2.20
2018-03-19T21:45:08.361Z,-2.20
2018-03-19T21:47:34.626Z,-2.30
2018-03-19T21:50:00.878Z,-2.30
2018-03-19T21:52:27.127Z,-2.30
2018-03-19T21:54:53.346Z,-2.20
2018-03-19T21:57:19.586Z,-2.20
2018-03-19T21:59:45.822Z,-2.20
2018-03-19T22:02:12.068Z,-2.20
2018-03-19T22:04:38.320Z,-2.20
2018-03-19T22:07:04.562Z,-2.20
2018-03-19T22:09:30.767Z,-2.20
2018-03-19T22:11:57.003Z,-2.20
2018-03-19T22:14:23.995Z,-2.20
2018-03-19T22:16:50.236Z,-2.20
2018-03-19T22:19:16.493Z,-2.20
2018-03-19T22:21:42.740Z,-2.20
2018-03-19T22:24:08.970Z,-2.20
2018-03-19T22:26:35.205Z,-2.20
2018-03-19T22:29:01.435Z,-2.20
2018-03-19T22:31:27.649Z,-2.20
2018-03-19T22:33:53.904Z,-2.20
2018-03-19T22:36:20.109Z,-2.20
2018-03-19T22:38:47.101Z,-2.20
2018-03-19T22:41:13.311Z,-2.20
2018-03-19T22:43:40.263Z,-2.30
2018-03-19T22:46:07.273Z,-2.30
2018-03-19T22:48:33.489Z,-2.30
2018-03-19T22:50:59.731Z,-2.30
2018-03-19T22:53:25.995Z,-2.30
2018-03-19T22:55:52.247Z,-2.30
2018-03-19T22:58:18.464Z,-2.20
2018-03-19T23:00:44.714Z,-2.20
2018-03-19T23:03:10.920Z,-2.20
2018-03-19T23:05:38.166Z,-2.20
2018-03-19T23:08:05.139Z,-2.20
2018-03-19T23:10:32.082Z,-2.20
2018-03-19T23:12:58.318Z,-2.20
2018-03-19T23:15:24.542Z,-2.20
2018-03-19T23:17:51.092Z,-2.20
2018-03-19T23:20:17.316Z,-2.20
2018-03-19T23:22:43.542Z,-2.30
2018-03-19T23:25:09.769Z,-2.30
2018-03-19T23:27:35.971Z,-2.30
2018-03-19T23:30:02.947Z,-2.30
2018-03-19T23:32:29.920Z,-2.30
2018-03-19T23:34:56.130Z,-2.30
2018-03-19T23:37:23.090Z,-2.30
2018-03-19T23:39:50.058Z,-2.30
2018-03-19T23:42:16.274Z,-2.30
2018-03-19T23:44:42.500Z,-2.30
2018-03-19T23:47:08.712Z,-2.30
2018-03-19T23:49:34.908Z,-2.30
2018-03-19T23:52:01.872Z,-2.30
2018-03-19T23:54:28.229Z,-2.30
2018-03-19T23:56:54.472Z,-2.30
2018-03-19T23:59:20.730Z,-2.30
